Time;durP1;ratioP1;P1;durP2;ratioP2;P2;SDS_P1;SDS_P2;PMS_P1;PMS_P2;Temp;Humidity;BMP_temperature;BMP_pressure;BME280_temperature;BME280_humidity;BME280_pressure;Samples;Min_cycle;Max_cycle;Signal;HPM_P1;HPM_P2
2022/12/18 00:01:05;;;;;;;81.18;47.17;;;-3.10;99.90;;;;;;5093671;28;20422;-81
2022/12/18 00:03:35;;;;;;;94.43;52.45;;;-2.90;99.90;;;;;;5103360;27;20413;-80
2022/12/18 00:06:01;;;;;;;89.57;49.42;;;-3.00;99.90;;;;;;5103747;28;20914;-80
2022/12/18 00:08:28;;;;;;;85.07;47.47;;;-2.90;99.90;;;;;;5091024;28;20495;-82
2022/12/18 00:10:53;;;;;;;85.03;50.03;;;-2.90;99.90;;;;;;5085162;28;20405;-82
2022/12/18 00:13:19;;;;;;;88.55;48.80;;;-2.90;99.90;;;;;;5109558;28;20409;-81
2022/12/18 00:15:45;;;;;;;82.05;47.20;;;-2.80;99.90;;;;;;5101434;28;20770;-83
2022/12/18 00:18:10;;;;;;;81.18;44.90;;;-3.00;99.90;;;;;;5077247;28;20861;-79
2022/12/18 00:20:38;;;;;;;80.00;44.87;;;-2.90;99.90;;;;;;5086100;28;20855;-78
2022/12/18 00:23:05;;;;;;;85.15;46.83;;;-2.90;99.90;;;;;;5089767;28;20444;-78
2022/12/18 00:25:35;;;;;;;81.80;48.40;;;-2.90;99.90;;;;;;5093617;28;20414;-80
2022/12/18 00:28:03;;;;;;;90.18;49.60;;;-2.90;99.90;;;;;;5100160;28;20810;-79
2022/12/18 00:30:29;;;;;;;86.78;49.40;;;-3.00;99.90;;;;;;5098513;28;20413;-78
2022/12/18 00:32:54;;;;;;;87.20;48.90;;;-2.90;99.90;;;;;;5093488;28;20520;-80
2022/12/18 00:35:20;;;;;;;89.65;49.42;;;-2.90;99.90;;;;;;5106592;28;20419;-80
2022/12/18 00:37:46;;;;;;;87.38;48.95;;;-2.80;99.90;;;;;;5109536;28;20477;-80
2022/12/18 00:40:12;;;;;;;82.47;45.10;;;-3.10;99.90;;;;;;5089843;28;20755;-81
2022/12/18 00:42:56;;;;;;;86.38;46.53;;;-2.90;99.90;;;;;;5102338;28;20471;-80
2022/12/18 00:45:28;;;;;;;82.10;47.30;;;-3.00;99.90;;;;;;5090063;28;20400;-80
2022/12/18 00:47:54;;;;;;;86.88;46.92;;;-3.10;99.90;;;;;;5108421;28;20804;-79
2022/12/18 00:50:20;;;;;;;82.43;45.97;;;-3.10;99.90;;;;;;5107491;28;20423;-79
2022/12/18 00:52:46;;;;;;;81.83;44.70;;;-3.10;99.90;;;;;;5109111;28;20500;-80
2022/12/18 00:55:12;;;;;;;82.53;46.88;;;-3.00;99.90;;;;;;5108803;28;20396;-78
2022/12/18 00:57:38;;;;;;;83.07;45.42;;;-2.90;99.90;;;;;;5108622;28;20428;-79
2022/12/18 01:00:07;;;;;;;81.47;46.97;;;-3.10;99.90;;;;;;5102919;28;20409;-79
2022/12/18 01:02:33;;;;;;;80.80;46.00;;;-3.20;99.90;;;;;;5095783;28;20428;-78
2022/12/18 01:04:59;;;;;;;86.35;49.00;;;-3.20;99.90;;;;;;5089176;28;20404;-78
2022/12/18 01:07:24;;;;;;;90.05;48.78;;;-3.10;99.90;;;;;;5103507;28;20782;-77
2022/12/18 01:09:50;;;;;;;82.15;47.33;;;-3.10;99.90;;;;;;5086526;28;20413;-77
2022/12/18 01:12:16;;;;;;;86.53;46.58;;;-3.00;99.90;;;;;;5091861;28;20449;-78
2022/12/18 01:14:41;;;;;;;88.43;46.80;;;-3.30;99.90;;;;;;5090305;28;20440;-78
2022/12/18 01:17:07;;;;;;;89.47;46.87;;;-3.20;99.90;;;;;;5093405;28;20421;-78
2022/12/18 01:19:33;;;;;;;85.00;45.07;;;-3.40;99.90;;;;;;5095799;28;20414;-79
2022/12/18 01:21:59;;;;;;;83.80;45.95;;;-3.30;99.90;;;;;;5062392;28;20424;-78
2022/12/18 01:24:24;;;;;;;81.38;45.72;;;-3.40;99.90;;;;;;5087840;28;20456;-78
2022/12/18 01:26:50;;;;;;;81.67;46.60;;;-3.40;99.90;;;;;;5087994;28;20868;-78
2022/12/18 01:29:16;;;;;;;83.27;44.67;;;-3.50;99.90;;;;;;5090510;28;20408;-77
2022/12/18 01:31:41;;;;;;;79.70;45.20;;;-3.50;99.90;;;;;;5089856;28;20497;-76
2022/12/18 01:34:08;;;;;;;80.18;42.67;;;-3.30;99.90;;;;;;5087015;28;21342;-77
2022/12/18 01:36:36;;;;;;;75.90;41.20;;;-3.40;99.90;;;;;;5097102;28;20485;-77
2022/12/18 01:39:04;;;;;;;69.72;40.40;;;-3.40;99.90;;;;;;5086756;28;22174;-77
2022/12/18 01:44:56;;;;;;;77.05;43.72;;;-3.30;99.90;;;;;;5078219;28;20515;-77
2022/12/18 01:47:43;;;;;;;78.82;41.47;;;-3.50;99.90;;;;;;5101524;28;20418;-78
2022/12/18 01:50:17;;;;;;;84.10;44.95;;;-3.50;99.90;;;;;;5099841;28;20445;-79
2022/12/18 01:53:08;;;;;;;74.47;43.90;;;-3.60;99.90;;;;;;5090243;28;20404;-78
2022/12/18 01:55:45;;;;;;;84.68;46.00;;;-3.70;99.90;;;;;;5076302;28;20497;-77
2022/12/18 01:58:10;;;;;;;78.28;42.72;;;-3.50;99.90;;;;;;5106137;28;20412;-76
2022/12/18 02:00:36;;;;;;;76.17;43.70;;;-3.70;99.90;;;;;;5106202;28;20420;-77
2022/12/18 02:03:02;;;;;;;81.70;45.33;;;-3.60;99.90;;;;;;5092952;28;20424;-78
2022/12/18 02:05:52;;;;;;;76.90;41.10;;;-3.70;99.90;;;;;;5110497;28;20418;-78
2022/12/18 02:08:40;;;;;;;73.25;40.35;;;-3.80;99.90;;;;;;5101049;28;20410;-78
2022/12/18 02:11:18;;;;;;;74.53;41.03;;;-3.70;99.90;;;;;;5105559;28;20466;-78
2022/12/18 02:14:00;;;;;;;69.80;40.45;;;-3.70;99.90;;;;;;5097689;28;25104;-77
2022/12/18 02:16:50;;;;;;;70.80;39.22;;;-3.90;99.90;;;;;;5076663;28;20494;-77
2022/12/18 02:19:18;;;;;;;71.07;39.57;;;-3.80;99.90;;;;;;5108639;28;20400;-78
2022/12/18 02:21:48;;;;;;;75.38;41.78;;;-4.00;99.90;;;;;;5116115;27;20595;-77
2022/12/18 02:24:19;;;;;;;67.60;39.92;;;-4.00;99.90;;;;;;5094837;28;20942;-78
2022/12/18 02:26:55;;;;;;;74.85;42.15;;;-4.00;99.90;;;;;;5112859;28;20442;-77
2022/12/18 02:29:34;;;;;;;79.60;42.75;;;-4.00;99.90;;;;;;5084532;28;20425;-76
2022/12/18 02:32:00;;;;;;;78.90;40.05;;;-4.00;99.90;;;;;;5097327;27;20418;-78
2022/12/18 02:34:32;;;;;;;68.40;39.78;;;-4.00;99.90;;;;;;5092931;27;20455;-79
2022/12/18 02:37:01;;;;;;;77.07;41.58;;;-3.90;99.90;;;;;;5094530;28;20454;-78
2022/12/18 02:39:30;;;;;;;82.18;46.03;;;-3.40;99.90;;;;;;5075003;28;20751;-77
2022/12/18 02:41:57;;;;;;;80.13;44.50;;;-4.00;99.90;;;;;;5094648;28;20789;-78
2022/12/18 02:44:23;;;;;;;84.18;45.00;;;-3.80;99.90;;;;;;5101665;27;20442;-78
2022/12/18 02:46:51;;;;;;;90.83;45.57;;;-4.00;99.90;;;;;;5072688;28;20425;-77
2022/12/18 02:49:40;;;;;;;89.50;46.90;;;-3.90;99.90;;;;;;5097401;28;20393;-76
2022/12/18 02:52:15;;;;;;;89.13;44.50;;;-3.90;99.90;;;;;;5110000;28;20452;-77
2022/12/18 02:55:01;;;;;;;86.10;45.03;;;-4.10;99.90;;;;;;5089761;28;20409;-78
2022/12/18 02:57:44;;;;;;;82.93;46.30;;;-4.10;99.90;;;;;;5071844;28;20497;-76
2022/12/18 03:00:19;;;;;;;84.00;45.95;;;-4.10;99.90;;;;;;5109514;28;20852;-77
2022/12/18 03:03:16;;;;;;;80.90;43.92;;;-4.10;99.90;;;;;;5091754;28;20466;-77
2022/12/18 03:05:56;;;;;;;83.68;45.47;;;-3.90;99.90;;;;;;5089962;28;20402;-78
2022/12/18 03:08:27;;;;;;;85.13;46.50;;;-4.10;99.90;;;;;;5093897;28;20454;-79
2022/12/18 03:11:04;;;;;;;86.63;46.00;;;-4.10;99.90;;;;;;5106239;28;20414;-77
2022/12/18 03:13:44;;;;;;;88.25;47.88;;;-4.00;99.90;;;;;;5083880;28;20818;-77
2022/12/18 03:16:15;;;;;;;88.57;46.75;;;-4.00;99.90;;;;;;5055319;28;20402;-76
2022/12/18 03:18:49;;;;;;;82.70;45.80;;;-4.20;99.90;;;;;;5093822;28;20422;-79
2022/12/18 03:21:19;;;;;;;87.47;47.05;;;-4.00;99.90;;;;;;5106107;28;20434;-79
2022/12/18 03:23:49;;;;;;;90.47;45.80;;;-4.30;99.90;;;;;;5081603;28;20418;-77
2022/12/18 03:26:18;;;;;;;89.90;49.30;;;-4.40;99.90;;;;;;5093117;28;20422;-77
2022/12/18 03:28:51;;;;;;;85.47;46.97;;;-4.40;99.90;;;;;;5091760;28;20406;-78
2022/12/18 03:31:17;;;;;;;86.75;48.08;;;-4.40;99.90;;;;;;5089758;28;20394;-78
2022/12/18 03:33:53;;;;;;;87.67;46.70;;;-4.30;99.90;;;;;;5089081;28;20586;-76
2022/12/18 03:36:19;;;;;;;87.40;44.35;;;-4.40;99.90;;;;;;5091351;28;20424;-78
2022/12/18 03:38:45;;;;;;;81.97;46.43;;;-4.50;99.90;;;;;;5100897;28;20786;-79
2022/12/18 03:41:42;;;;;;;86.40;49.00;;;-4.50;99.90;;;;;;5093983;28;20513;-77
2022/12/18 03:44:27;;;;;;;77.65;45.63;;;-4.50;99.90;;;;;;5065002;28;20441;-76
2022/12/18 03:47:05;;;;;;;80.50;43.55;;;-4.40;99.90;;;;;;5089322;28;20398;-77
2022/12/18 03:49:54;;;;;;;87.05;47.90;;;-4.50;99.90;;;;;;5099105;28;20913;-78
2022/12/18 03:52:25;;;;;;;78.95;45.20;;;-4.50;99.90;;;;;;5098693;28;20428;-77
2022/12/18 03:54:53;;;;;;;76.78;43.60;;;-4.40;99.90;;;;;;5082849;28;20428;-77
2022/12/18 03:57:27;;;;;;;76.80;42.27;;;-4.60;99.90;;;;;;5109234;28;20477;-78
2022/12/18 03:59:57;;;;;;;77.65;44.15;;;-4.60;99.90;;;;;;5094847;28;20414;-76
2022/12/18 04:02:24;;;;;;;78.85;45.38;;;-4.70;99.90;;;;;;5105950;28;20436;-77
2022/12/18 04:04:57;;;;;;;80.03;43.78;;;-4.70;99.90;;;;;;5107684;28;20408;-78
2022/12/18 04:07:24;;;;;;;77.10;42.55;;;-4.70;99.90;;;;;;5096294;28;20419;-77
2022/12/18 04:09:53;;;;;;;77.15;44.38;;;-4.80;99.90;;;;;;5105483;28;20415;-78
2022/12/18 04:12:19;;;;;;;73.60;42.83;;;-4.90;99.90;;;;;;5096002;28;20428;-79
2022/12/18 04:14:44;;;;;;;77.77;42.93;;;-4.80;99.90;;;;;;5107144;28;20420;-77
2022/12/18 04:17:10;;;;;;;75.60;42.15;;;-4.90;99.90;;;;;;5104962;28;20425;-76
2022/12/18 04:19:35;;;;;;;74.07;44.17;;;-4.80;99.90;;;;;;5099661;28;20400;-77
2022/12/18 04:22:01;;;;;;;71.80;42.13;;;-5.00;99.90;;;;;;5102591;28;20437;-76
2022/12/18 04:24:27;;;;;;;72.53;41.43;;;-4.90;99.90;;;;;;5100863;28;20541;-77
2022/12/18 04:26:52;;;;;;;69.27;39.90;;;-5.10;99.90;;;;;;5093788;28;20477;-78
2022/12/18 04:29:18;;;;;;;71.77;40.97;;;-4.90;99.90;;;;;;5099643;28;20418;-76
2022/12/18 04:31:44;;;;;;;71.47;39.97;;;-5.00;99.90;;;;;;5107828;28;20918;-79
2022/12/18 04:34:09;;;;;;;72.63;40.90;;;-4.80;99.90;;;;;;5097385;28;20470;-78
2022/12/18 04:36:35;;;;;;;67.47;38.97;;;-4.90;99.90;;;;;;5103464;28;20869;-80
2022/12/18 04:39:00;;;;;;;66.63;39.13;;;-5.10;99.90;;;;;;5099869;28;20898;-80
2022/12/18 04:41:26;;;;;;;66.83;36.57;;;-5.10;99.90;;;;;;5108474;28;20465;-79
2022/12/18 04:43:52;;;;;;;67.13;39.00;;;-5.20;99.90;;;;;;5075947;28;20445;-77
2022/12/18 04:46:17;;;;;;;71.10;39.83;;;-5.20;99.90;;;;;;5088132;28;20441;-77
2022/12/18 04:48:45;;;;;;;66.22;36.40;;;-5.20;99.90;;;;;;5108523;28;20447;-79
2022/12/18 04:51:11;;;;;;;62.22;36.08;;;-5.10;99.90;;;;;;5109611;28;20469;-80
2022/12/18 04:53:37;;;;;;;64.22;37.88;;;-5.20;99.90;;;;;;5099717;28;20493;-77
2022/12/18 04:56:11;;;;;;;66.38;37.40;;;-5.40;99.90;;;;;;5089729;28;20971;-78
2022/12/18 04:58:38;;;;;;;69.75;36.80;;;-5.30;99.90;;;;;;5072984;28;20508;-79
2022/12/18 05:01:05;;;;;;;61.90;36.10;;;-5.30;99.90;;;;;;5109025;28;20503;-79
2022/12/18 05:03:31;;;;;;;59.17;34.00;;;-5.40;99.90;;;;;;5095644;28;20436;-77
2022/12/18 05:05:57;;;;;;;61.95;34.50;;;-5.30;99.90;;;;;;5100523;28;20416;-78
2022/12/18 05:08:23;;;;;;;66.83;36.33;;;-5.40;99.90;;;;;;5087920;28;20408;-78
2022/12/18 05:10:49;;;;;;;59.13;32.90;;;-5.40;99.90;;;;;;5089179;28;20415;-80
2022/12/18 05:13:14;;;;;;;57.30;34.85;;;-5.40;99.90;;;;;;5095520;28;20420;-77
2022/12/18 05:15:41;;;;;;;55.03;32.97;;;-5.40;99.90;;;;;;5109309;28;20406;-79
2022/12/18 05:18:07;;;;;;;56.55;32.22;;;-5.40;99.90;;;;;;5088180;28;20429;-79
2022/12/18 05:20:33;;;;;;;56.67;32.10;;;-5.50;99.90;;;;;;5094862;28;20760;-79
2022/12/18 05:22:59;;;;;;;50.63;31.65;;;-5.50;99.90;;;;;;5101851;28;20429;-79
2022/12/18 05:25:25;;;;;;;59.15;31.88;;;-5.50;99.90;;;;;;5106038;28;20437;-80
2022/12/18 05:27:50;;;;;;;56.85;32.97;;;-5.50;99.90;;;;;;5113845;28;20774;-79
2022/12/18 05:30:16;;;;;;;54.80;31.63;;;-5.60;99.90;;;;;;5113665;28;20400;-80
2022/12/18 05:32:42;;;;;;;57.83;32.60;;;-5.60;99.90;;;;;;5112675;28;20899;-80
2022/12/18 05:35:09;;;;;;;57.57;33.87;;;-5.60;99.90;;;;;;5095939;28;20420;-79
2022/12/18 05:37:35;;;;;;;60.15;31.58;;;-5.50;99.90;;;;;;5098220;28;20421;-80
2022/12/18 05:40:03;;;;;;;55.80;30.10;;;-5.00;99.90;;;;;;5104859;28;20422;-79
2022/12/18 05:42:28;;;;;;;58.92;33.45;;;-5.50;99.90;;;;;;5098894;28;20459;-81
2022/12/18 05:44:54;;;;;;;51.17;30.35;;;-5.50;99.90;;;;;;5109584;28;20458;-79
2022/12/18 05:47:20;;;;;;;60.42;32.88;;;-5.40;99.90;;;;;;5099682;27;20418;-80
2022/12/18 05:49:45;;;;;;;54.30;30.13;;;-5.50;99.90;;;;;;5089458;28;20488;-77
2022/12/18 05:52:11;;;;;;;58.50;32.83;;;-5.20;99.90;;;;;;5102736;28;20467;-79
2022/12/18 05:54:37;;;;;;;55.83;29.83;;;-5.50;99.90;;;;;;5106587;28;20399;-79
2022/12/18 05:57:02;;;;;;;64.07;32.30;;;-5.40;99.90;;;;;;5111768;28;20412;-79
2022/12/18 05:59:28;;;;;;;54.17;33.10;;;-5.50;99.90;;;;;;5107568;28;20813;-80
2022/12/18 06:01:54;;;;;;;54.47;31.93;;;-5.50;99.90;;;;;;5090925;28;21133;-79
2022/12/18 06:04:19;;;;;;;56.47;32.13;;;-5.10;99.90;;;;;;5097108;28;20992;-81
2022/12/18 06:06:45;;;;;;;58.63;32.22;;;-5.50;99.90;;;;;;5087643;28;20424;-80
2022/12/18 06:09:11;;;;;;;56.30;31.55;;;-5.50;99.90;;;;;;5077825;28;20487;-80
2022/12/18 06:11:37;;;;;;;57.95;32.45;;;-5.50;99.90;;;;;;5091061;28;20489;-80
2022/12/18 06:14:05;;;;;;;53.58;30.92;;;-5.50;99.90;;;;;;5084792;28;20500;-78
2022/12/18 06:16:31;;;;;;;57.03;30.73;;;-5.70;99.90;;;;;;5104662;28;20410;-80
2022/12/18 06:19:03;;;;;;;55.90;32.45;;;-5.70;99.90;;;;;;5091780;27;20422;-83
2022/12/18 06:21:29;;;;;;;54.53;31.63;;;-5.70;99.90;;;;;;5104599;28;20433;-81
2022/12/18 06:23:55;;;;;;;53.13;30.05;;;-5.80;99.90;;;;;;5091257;27;20421;-80
2022/12/18 06:26:21;;;;;;;55.20;31.85;;;-5.80;99.90;;;;;;5107531;28;20499;-81
2022/12/18 06:28:46;;;;;;;49.15;29.08;;;-5.80;99.90;;;;;;5111590;28;20408;-85
2022/12/18 06:31:12;;;;;;;53.30;30.00;;;-5.80;99.90;;;;;;5106928;28;20504;-84
2022/12/18 06:33:38;;;;;;;54.53;29.10;;;-5.80;99.90;;;;;;5099397;28;20449;-80
2022/12/18 06:36:08;;;;;;;55.10;32.30;;;-5.80;99.90;;;;;;5079768;28;20827;-85
2022/12/18 06:38:34;;;;;;;51.40;29.40;;;-5.90;99.90;;;;;;5092186;28;20896;-86
2022/12/18 06:41:00;;;;;;;51.75;28.55;;;-5.80;99.90;;;;;;5092815;28;20896;-87
2022/12/18 06:43:25;;;;;;;50.67;30.20;;;-5.50;99.90;;;;;;5091619;28;20406;-84
2022/12/18 06:45:57;;;;;;;56.67;28.57;;;-5.80;99.90;;;;;;5103908;28;20507;-88
2022/12/18 06:48:22;;;;;;;50.85;27.73;;;-5.70;99.90;;;;;;5092025;28;20417;-86
2022/12/18 06:50:48;;;;;;;47.60;27.27;;;-5.70;99.90;;;;;;5100665;28;20404;-84
2022/12/18 06:53:14;;;;;;;48.90;27.70;;;-5.80;99.90;;;;;;5094293;28;20523;-87
2022/12/18 06:55:40;;;;;;;55.50;29.40;;;-5.70;99.90;;;;;;5111440;28;20895;-88
2022/12/18 06:58:06;;;;;;;50.25;26.92;;;-5.70;99.90;;;;;;5113545;28;20949;-85
2022/12/18 07:00:32;;;;;;;50.95;27.80;;;-5.70;99.90;;;;;;5111777;27;20420;-87
2022/12/18 07:02:57;;;;;;;49.97;27.47;;;-5.80;99.90;;;;;;5112473;28;20474;-83
2022/12/18 07:05:23;;;;;;;48.17;27.40;;;-5.70;99.90;;;;;;5108364;28;20467;-82
2022/12/18 07:07:49;;;;;;;50.40;29.08;;;-5.70;99.90;;;;;;5113455;27;20414;-81
2022/12/18 07:10:14;;;;;;;46.17;25.95;;;-5.70;99.90;;;;;;5102783;28;20423;-84
2022/12/18 07:12:40;;;;;;;50.53;26.80;;;-5.70;99.90;;;;;;5105652;27;20452;-85
2022/12/18 07:15:07;;;;;;;49.10;26.35;;;-5.70;99.90;;;;;;5120798;28;20380;-80
2022/12/18 07:17:32;;;;;;;54.13;26.90;;;-5.80;99.90;;;;;;5133777;28;20419;-84
2022/12/18 07:19:58;;;;;;;48.80;27.75;;;-5.70;99.90;;;;;;5112398;28;20420;-85
2022/12/18 07:22:25;;;;;;;49.90;26.27;;;-5.70;99.90;;;;;;5135800;27;20426;-86
2022/12/18 07:24:51;;;;;;;44.60;25.30;;;-5.70;99.90;;;;;;5133220;27;20478;-87
2022/12/18 07:27:17;;;;;;;43.35;23.67;;;-5.60;99.90;;;;;;5113126;27;21054;-86
2022/12/18 07:29:42;;;;;;;43.90;24.52;;;-5.60;99.90;;;;;;5094368;28;20408;-86
2022/12/18 07:32:08;;;;;;;47.53;24.70;;;-5.60;99.90;;;;;;5109566;28;20423;-87
2022/12/18 07:34:34;;;;;;;42.93;24.57;;;-5.50;99.90;;;;;;5110701;28;20556;-86
2022/12/18 07:37:00;;;;;;;44.92;26.25;;;-5.50;99.90;;;;;;5092575;28;20481;-88
2022/12/18 07:39:26;;;;;;;46.70;24.42;;;-5.40;99.90;;;;;;5091129;28;20403;-87
2022/12/18 07:44:36;;;;;;;42.20;23.08;;;-5.40;99.90;;;;;;5076936;28;20397;-85
2022/12/18 07:47:03;;;;;;;39.30;21.92;;;-5.30;99.90;;;;;;5093638;28;20526;-87
2022/12/18 07:49:28;;;;;;;39.45;22.00;;;-5.30;99.90;;;;;;5117144;28;20382;-80
2022/12/18 07:51:57;;;;;;;32.80;20.48;;;-5.30;99.90;;;;;;5109384;28;20502;-84
2022/12/18 07:54:24;;;;;;;38.65;20.85;;;-5.20;99.90;;;;;;5099071;28;20417;-87
2022/12/18 07:56:50;;;;;;;40.22;23.55;;;-5.20;99.90;;;;;;5094501;28;20843;-84
2022/12/18 07:59:16;;;;;;;38.78;22.90;;;-5.10;99.90;;;;;;5092168;28;20402;-82
2022/12/18 08:01:41;;;;;;;37.10;23.05;;;-5.10;99.90;;;;;;5072336;28;20429;-87
2022/12/18 08:04:07;;;;;;;37.47;23.47;;;-5.10;99.90;;;;;;5094672;28;20432;-86
2022/12/18 08:06:33;;;;;;;36.37;21.73;;;-5.10;99.90;;;;;;5071822;28;20418;-88
2022/12/18 08:08:58;;;;;;;37.85;21.95;;;-5.00;99.90;;;;;;5075605;28;20430;-84
2022/12/18 08:11:26;;;;;;;36.63;23.08;;;-5.10;99.90;;;;;;5088723;28;20426;-86
2022/12/18 08:13:52;;;;;;;35.33;23.58;;;-5.00;99.90;;;;;;5114548;28;20400;-86
2022/12/18 08:16:18;;;;;;;35.03;20.95;;;-5.00;99.90;;;;;;5109130;28;20426;-79
2022/12/18 08:18:44;;;;;;;35.05;21.77;;;-4.90;99.90;;;;;;5099544;28;20428;-81
2022/12/18 08:21:18;;;;;;;34.73;20.60;;;-5.00;99.90;;;;;;5086424;28;20458;-85
2022/12/18 08:23:44;;;;;;;32.25;20.55;;;-4.90;99.90;;;;;;5101519;28;20413;-84
2022/12/18 08:26:11;;;;;;;34.45;20.52;;;-4.80;99.90;;;;;;5122368;28;20381;-80
2022/12/18 08:28:37;;;;;;;36.15;20.38;;;-4.70;99.90;;;;;;5132015;27;20405;-80
2022/12/18 08:31:03;;;;;;;31.43;20.17;;;-4.70;99.90;;;;;;5108655;28;20420;-83
2022/12/18 08:33:29;;;;;;;33.33;20.73;;;-4.60;99.90;;;;;;5077259;28;20417;-81
2022/12/18 08:35:55;;;;;;;34.58;20.85;;;-4.50;99.90;;;;;;5077606;28;20481;-84
2022/12/18 08:38:22;;;;;;;31.20;19.60;;;-4.50;99.90;;;;;;5092303;28;20416;-85
2022/12/18 08:40:48;;;;;;;33.00;20.30;;;-3.50;99.90;;;;;;5094987;28;20409;-82
2022/12/18 08:45:57;;;;;;;30.98;19.35;;;-4.30;99.90;;;;;;5098751;28;20509;-84
2022/12/18 08:48:23;;;;;;;30.37;19.80;;;-4.30;99.90;;;;;;5089311;28;20833;-85
2022/12/18 08:51:09;;;;;;;31.00;19.50;;;-4.20;99.90;;;;;;5094381;28;20444;-85
2022/12/18 08:53:35;;;;;;;26.00;17.63;;;-4.20;99.90;;;;;;5106348;28;20426;-83
2022/12/18 08:56:01;;;;;;;30.55;20.42;;;-4.10;99.90;;;;;;5105909;28;20410;-86
2022/12/18 08:58:27;;;;;;;27.50;17.67;;;-4.10;99.90;;;;;;5107159;27;20474;-81
2022/12/18 09:00:52;;;;;;;29.55;17.70;;;-4.00;99.90;;;;;;5107120;27;20927;-88
2022/12/18 09:03:19;;;;;;;27.55;18.48;;;-3.90;99.90;;;;;;5133864;27;20413;-83
2022/12/18 09:05:48;;;;;;;27.35;17.63;;;-4.00;99.90;;;;;;5132652;27;20442;-85
2022/12/18 09:08:14;;;;;;;26.48;16.90;;;-3.90;99.90;;;;;;5113937;28;20906;-80
2022/12/18 09:10:44;;;;;;;27.27;16.98;;;-3.90;99.90;;;;;;5115168;28;20403;-85
2022/12/18 09:13:11;;;;;;;26.80;17.52;;;-3.70;99.90;;;;;;5096695;28;20424;-84
2022/12/18 09:15:51;;;;;;;27.55;18.17;;;-3.80;99.90;;;;;;5093869;28;20402;-83
2022/12/18 09:18:19;;;;;;;27.75;17.58;;;-3.80;99.90;;;;;;5114264;27;20423;-84
2022/12/18 09:20:44;;;;;;;27.55;17.63;;;-3.60;99.90;;;;;;5113641;28;20404;-85
2022/12/18 09:23:11;;;;;;;24.50;18.23;;;-3.60;99.90;;;;;;5113281;27;20437;-84
2022/12/18 09:25:37;;;;;;;25.48;17.40;;;-3.50;99.90;;;;;;5095262;28;20416;-83
2022/12/18 09:28:06;;;;;;;24.63;17.27;;;-3.40;99.90;;;;;;5091046;28;20425;-85
2022/12/18 09:30:33;;;;;;;21.90;14.57;;;-3.20;99.90;;;;;;5107379;28;20415;-85
2022/12/18 09:33:00;;;;;;;25.90;17.13;;;-2.20;99.90;;;;;;5106804;27;20410;-84
2022/12/18 09:35:27;;;;;;;23.13;15.82;;;-3.10;99.90;;;;;;5114484;27;20402;-86
2022/12/18 09:37:53;;;;;;;22.58;15.60;;;-3.00;99.90;;;;;;5099067;27;20419;-85
2022/12/18 09:40:22;;;;;;;23.65;16.80;;;-3.00;99.90;;;;;;5107806;28;20972;-83
2022/12/18 09:43:00;;;;;;;22.20;15.33;;;-2.50;99.90;;;;;;5102112;27;20427;-83
2022/12/18 09:45:26;;;;;;;23.88;15.32;;;-2.90;99.90;;;;;;5110718;28;20454;-82
2022/12/18 09:47:54;;;;;;;19.93;14.07;;;-2.80;99.90;;;;;;5118309;28;20464;-81
2022/12/18 09:50:35;;;;;;;27.35;17.20;;;-2.80;99.90;;;;;;5075168;28;20409;-85
2022/12/18 09:53:07;;;;;;;23.02;16.02;;;-2.90;99.90;;;;;;5092687;28;20437;-83
2022/12/18 09:55:45;;;;;;;25.63;16.33;;;-2.80;99.90;;;;;;5093029;28;20409;-86
2022/12/18 09:58:44;;;;;;;22.42;15.80;;;-2.90;99.90;;;;;;5089069;27;20458;-81
2022/12/18 10:01:18;;;;;;;22.95;16.33;;;-2.90;99.90;;;;;;5069344;28;20476;-85
2022/12/18 10:03:44;;;;;;;24.23;16.27;;;-2.90;99.90;;;;;;5074621;28;20418;-86
2022/12/18 10:06:24;;;;;;;22.48;15.20;;;-3.00;99.90;;;;;;5093912;28;20405;-84
2022/12/18 10:09:06;;;;;;;24.65;16.48;;;-3.10;99.90;;;;;;5083274;28;20487;-83
2022/12/18 10:11:39;;;;;;;23.93;17.57;;;-3.10;99.90;;;;;;5077603;28;21089;-86
2022/12/18 10:14:17;;;;;;;24.73;17.33;;;-3.10;99.90;;;;;;5090314;28;20466;-85
2022/12/18 10:17:00;;;;;;;23.45;16.00;;;-3.20;99.90;;;;;;5079780;28;20423;-85
2022/12/18 10:19:38;;;;;;;24.80;16.27;;;-3.20;99.90;;;;;;5095363;28;20800;-83
2022/12/18 10:22:34;;;;;;;24.02;16.85;;;-3.30;99.90;;;;;;5095407;28;20945;-82
2022/12/18 10:25:15;;;;;;;22.63;15.80;;;-3.30;99.90;;;;;;5114116;28;20439;-82
2022/12/18 10:27:41;;;;;;;21.55;13.95;;;-3.20;99.90;;;;;;5113443;28;20408;-84
2022/12/18 10:30:15;;;;;;;19.60;13.90;;;-3.10;99.90;;;;;;5102685;28;20410;-84
2022/12/18 10:32:41;;;;;;;20.20;14.50;;;-3.20;99.90;;;;;;5111056;27;20418;-84
2022/12/18 10:35:20;;;;;;;22.17;14.57;;;-3.10;99.90;;;;;;5113821;28;20396;-84
2022/12/18 10:38:14;;;;;;;20.40;14.45;;;-3.10;99.90;;;;;;5114615;28;20538;-85
2022/12/18 10:40:59;;;;;;;20.75;14.63;;;-2.90;99.90;;;;;;5075865;28;20485;-84
2022/12/18 10:43:30;;;;;;;18.33;13.35;;;-2.90;99.90;;;;;;5096148;28;20466;-85
2022/12/18 10:46:08;;;;;;;18.87;13.77;;;-2.80;99.90;;;;;;5130880;27;20446;-85
2022/12/18 10:48:47;;;;;;;20.30;14.60;;;-2.70;99.90;;;;;;5107732;27;20421;-82
2022/12/18 10:51:23;;;;;;;19.33;14.23;;;-2.70;99.90;;;;;;5093147;28;20920;-81
2022/12/18 10:53:55;;;;;;;21.00;15.40;;;-2.70;99.90;;;;;;5079248;28;20458;-85
2022/12/18 10:56:21;;;;;;;20.33;14.10;;;-2.50;99.90;;;;;;5096351;28;20469;-83
2022/12/18 10:58:58;;;;;;;17.25;12.52;;;-2.50;99.90;;;;;;5117076;28;20418;-83
2022/12/18 11:01:24;;;;;;;19.60;12.80;;;-2.50;99.90;;;;;;5127461;27;20429;-79
2022/12/18 11:03:50;;;;;;;17.20;11.60;;;-2.40;99.90;;;;;;5144544;27;20745;-84
2022/12/18 11:06:19;;;;;;;16.30;12.07;;;-2.40;99.90;;;;;;5118526;28;20472;-88
2022/12/18 11:09:01;;;;;;;18.27;12.20;;;-2.30;99.90;;;;;;5115295;28;20412;-82
2022/12/18 11:11:28;;;;;;;17.30;12.98;;;-2.20;99.90;;;;;;5116460;28;20416;-80
2022/12/18 11:14:06;;;;;;;15.93;11.95;;;-2.20;99.90;;;;;;5120390;27;20448;-82
2022/12/18 11:16:43;;;;;;;16.65;11.73;;;-2.10;99.90;;;;;;5079084;28;20537;-82
2022/12/18 11:19:25;;;;;;;17.10;12.30;;;-2.00;99.90;;;;;;5118976;27;20426;-84
2022/12/18 11:21:51;;;;;;;16.02;10.13;;;-2.00;99.90;;;;;;5091960;28;20505;-81
2022/12/18 11:24:37;;;;;;;15.07;10.90;;;-2.00;99.90;;;;;;5107580;28;20410;-80
2022/12/18 11:27:15;;;;;;;16.33;11.40;;;-1.90;99.90;;;;;;5108989;28;20523;-83
2022/12/18 11:29:41;;;;;;;14.57;10.55;;;-1.90;99.90;;;;;;5109280;28;20605;-80
2022/12/18 11:32:39;;;;;;;14.63;11.02;;;-1.90;99.90;;;;;;5108862;28;20422;-83
2022/12/18 11:35:15;;;;;;;12.27;8.70;;;-1.90;99.90;;;;;;5097334;28;20488;-84
2022/12/18 11:37:53;;;;;;;13.45;10.10;;;-1.80;99.90;;;;;;5131942;27;20541;-85
2022/12/18 11:40:24;;;;;;;13.15;9.38;;;-1.70;99.90;;;;;;5100194;28;20463;-83
2022/12/18 11:43:10;;;;;;;13.95;9.45;;;-1.70;99.90;;;;;;5095760;28;20968;-86
2022/12/18 11:45:43;;;;;;;13.48;9.95;;;-1.70;99.90;;;;;;5092741;28;20572;-81
2022/12/18 11:48:23;;;;;;;11.82;8.77;;;-1.60;99.90;;;;;;5092752;28;20444;-83
2022/12/18 11:50:52;;;;;;;12.88;9.18;;;-1.70;99.90;;;;;;5111769;28;20445;-84
2022/12/18 11:53:18;;;;;;;12.98;9.43;;;-1.70;99.90;;;;;;5111612;28;20833;-80
2022/12/18 11:55:55;;;;;;;11.68;8.85;;;-1.70;99.90;;;;;;5093678;28;20724;-83
2022/12/18 11:58:55;;;;;;;13.33;9.23;;;-1.60;99.90;;;;;;5086143;27;20480;-83
2022/12/18 12:01:46;;;;;;;11.40;8.03;;;-1.60;99.90;;;;;;5113087;27;20547;-80
2022/12/18 12:04:43;;;;;;;10.90;7.97;;;-1.60;99.90;;;;;;5096053;27;20439;-82
2022/12/18 12:07:09;;;;;;;12.00;8.73;;;-1.60;99.90;;;;;;5131019;27;20391;-83
2022/12/18 12:09:44;;;;;;;9.13;7.23;;;-1.60;99.90;;;;;;5088807;28;20480;-81
2022/12/18 12:12:47;;;;;;;11.10;7.83;;;-1.50;99.90;;;;;;5103215;28;20791;-81
2022/12/18 12:15:17;;;;;;;9.55;7.88;;;-1.50;99.90;;;;;;5091811;28;20463;-77
2022/12/18 12:17:49;;;;;;;9.48;6.55;;;-1.50;99.90;;;;;;5096799;27;20483;-85
2022/12/18 12:20:31;;;;;;;10.45;7.60;;;-1.50;99.90;;;;;;5130944;27;20482;-80
2022/12/18 12:23:12;;;;;;;10.77;6.30;;;-1.40;99.90;;;;;;5130472;27;20514;-85
2022/12/18 12:26:23;;;;;;;9.07;6.23;;;-1.40;99.90;;;;;;5112312;27;20588;-83
2022/12/18 12:29:20;;;;;;;9.30;6.68;;;-1.40;99.90;;;;;;5046728;28;20507;-83
2022/12/18 12:31:57;;;;;;;9.02;6.18;;;-1.80;99.90;;;;;;5091823;28;20474;-85
2022/12/18 12:34:29;;;;;;;8.88;6.85;;;-1.30;99.90;;;;;;5096917;28;20464;-82
2022/12/18 12:37:21;;;;;;;8.32;6.13;;;-1.40;99.90;;;;;;5111153;27;20481;-81
2022/12/18 12:39:48;;;;;;;9.55;6.78;;;-1.30;99.90;;;;;;5070785;28;20479;-85
2022/12/18 12:45:36;;;;;;;9.50;6.10;;;-1.20;99.90;;;;;;5108764;28;20449;-80
2022/12/18 12:48:03;;;;;;;8.10;5.78;;;-1.20;99.90;;;;;;5104644;28;20502;-87
2022/12/18 12:50:34;;;;;;;8.77;6.05;;;-1.10;99.90;;;;;;5108199;28;20897;-85
2022/12/18 12:53:06;;;;;;;8.65;5.65;;;-1.10;99.90;;;;;;5092849;28;20488;-86
2022/12/18 12:55:34;;;;;;;9.50;5.65;;;-1.10;99.90;;;;;;5103958;28;20429;-86
2022/12/18 12:58:07;;;;;;;8.63;5.80;;;-1.10;99.90;;;;;;5105824;28;20503;-83